• Join FlightAware (Why Join?)
  • Login
  • US Flag GB Flag 
17:40 EDT


 

Airport Tracker/Info


-or-


 

Live Flight TrackerFlight Track Log ✈ MTN8308 ✈ 15-May-2013 ✈ KEWR - KBWI

Flight Track Log - Related Links

Times and Time Zones

All times are in EDT time to prevent confusion due to time zone crossing. See the MTN8308 flight status page for this flight to view local times or setup timezone preferences in your user account.

Time Position Orientation Groundspeed Altitude Reporting Facility
EDT Latitude Longitude Course Direction KTS MPH feet Rate Location/Type
03:23 40.6667 -74.1833 270° West 92 106 900  Level New York TRACON
03:24 40.6667 -74.2167 270° West 98 113 1,400 480 Climbing New York TRACON
03:25 40.6667 -74.2667 270° West 114 131 1,900 540 Climbing New York TRACON
03:26 40.6500 -74.3000 237° Southwest 117 135 2,500 600 Climbing New York TRACON
03:27 40.6500 -74.3500 270° West 122 140 3,100 600 Climbing New York TRACON
03:28 40.6333 -74.3833 237° Southwest 125 144 3,800 420 Climbing New York TRACON
03:29 40.6333 -74.4333 270° West 142 163 4,000 60 Climbing New York TRACON
03:30 40.6167 -74.5000 252° West 154 177 4,000  Level New York TRACON
03:31 40.6167 -74.5500 270° West 158 182 4,000  Level New York TRACON
03:32 40.6000 -74.6000 246° West 157 181 4,000  Level New York TRACON
03:33 40.6000 -74.6667 270° West 155 178 4,000  Level New York TRACON
03:34 40.5833 -74.7167 246° West 153 176 4,000  Level New York TRACON
03:36 40.5633 -74.7776 264° West  Level FlightAware Approximate
03:37 40.5667 -74.8833 264° West 151 174 4,100  Level Philadelphia TRACON
03:38 40.5667 -74.9500 270° West 149 171 4,100  Level Philadelphia TRACON
03:39 40.5500 -74.9833 237° Southwest 157 181 4,100  Level Philadelphia TRACON
03:40 40.5167 -75.0167 217° Southwest 154 177 4,100  Level Philadelphia TRACON
03:41 40.4833 -75.0667 229° Southwest 154 177 4,100  Level Philadelphia TRACON
03:42 40.4500 -75.1000 217° Southwest 153 176 4,100  Level Philadelphia TRACON
03:43 40.4167 -75.1333 217° Southwest 153 176 4,100  Level Philadelphia TRACON
03:44 40.3833 -75.1667 217° Southwest 152 175 4,100  Level Philadelphia TRACON
03:45 40.3500 -75.2000 217° Southwest 151 174 4,100  Level Philadelphia TRACON
03:46 40.3167 -75.2333 217° Southwest 150 173 4,100  Level Philadelphia TRACON
03:47 40.2833 -75.2667 217° Southwest 147 169 4,100  Level Philadelphia TRACON
03:48 40.2500 -75.3000 217° Southwest 145 167 4,100  Level Philadelphia TRACON
03:49 40.2167 -75.3333 217° Southwest 145 167 4,100  Level Philadelphia TRACON
03:50 40.2000 -75.3667 237° Southwest 145 167 4,100  Level Philadelphia TRACON
03:51 40.1667 -75.4000 217° Southwest 144 166 4,100  Level Philadelphia TRACON
03:52 40.1333 -75.4333 217° Southwest 142 163 4,100  Level Philadelphia TRACON
03:53 40.1000 -75.4667 217° Southwest 141 162 4,100  Level Philadelphia TRACON
03:54 40.0667 -75.5000 217° Southwest 138 159 4,100  Level Philadelphia TRACON
03:55 40.0500 -75.5333 237° Southwest 140 161 4,100  Level Philadelphia TRACON
03:56 40.0167 -75.5667 217° Southwest 137 158 4,100 -60 Level Philadelphia TRACON
03:57 39.9833 -75.6000 217° Southwest 139 160 4,000  Descending Philadelphia TRACON
03:58 39.9500 -75.6333 217° Southwest 138 159 4,100  Climbing Philadelphia TRACON
03:59 39.9333 -75.6667 237° Southwest 137 158 4,100  Level Philadelphia TRACON
04:00 39.9000 -75.7000 217° Southwest 135 155 4,100  Level Philadelphia TRACON
04:01 39.8667 -75.7333 218° Southwest 137 158 4,100  Level Philadelphia TRACON
04:02 39.8500 -75.7667 237° Southwest 136 157 4,100  Level Philadelphia TRACON
04:03 39.8167 -75.8000 218° Southwest 137 158 4,100  Level Philadelphia TRACON
04:04 39.8000 -75.8333 237° Southwest 136 157 4,100 -60 Level Philadelphia TRACON
04:06 39.7333 -75.9167 224° Southwest 137 158 4,000  Descending Potomac TRACON
04:07 39.7167 -75.9500 237° Southwest 137 158 4,100  Climbing Potomac TRACON
04:08 39.6833 -75.9833 218° Southwest 136 157 4,000  Descending Potomac TRACON
04:09 39.6667 -76.0167 237° Southwest 137 158 4,100 -60 Climbing Potomac TRACON
04:10 39.6333 -76.0500 218° Southwest 134 154 3,900 -120 Descending Potomac TRACON
04:11 39.6000 -76.0833 218° Southwest 136 157 3,900  Level Potomac TRACON
04:12 39.5667 -76.1167 218° Southwest 136 157 3,900  Level Potomac TRACON
04:13 39.5500 -76.1333 218° Southwest 135 155 3,900  Level Potomac TRACON
04:14 39.5167 -76.1833 229° Southwest 136 157 3,900  Level Potomac TRACON
04:15 39.4833 -76.2167 218° Southwest 137 158 3,900  Level Potomac TRACON
04:16 39.4667 -76.2500 237° Southwest 137 158 4,000  Climbing Potomac TRACON
04:17 39.4333 -76.2833 218° Southwest 137 158 3,900 -60 Descending Potomac TRACON
04:18 39.4167 -76.3167 237° Southwest 138 159 3,900 -120 Level Potomac TRACON
04:19 39.3833 -76.3500 218° Southwest 143 165 3,700 -240 Descending Potomac TRACON
04:20 39.3500 -76.3833 218° Southwest 143 165 3,500 -240 Descending Potomac TRACON
04:21 39.3333 -76.4333 247° West 145 167 3,300 -240 Descending Potomac TRACON
04:22 39.3000 -76.4667 218° Southwest 145 167 3,100 -180 Descending Potomac TRACON
04:23 39.2667 -76.5000 218° Southwest 142 163 3,000 -300 Descending Potomac TRACON
04:24 39.2500 -76.5333 237° Southwest 148 170 2,500 -660 Descending Potomac TRACON
04:25 39.2167 -76.5833 229° Southwest 150 173 1,700 -840 Descending Potomac TRACON
04:26 39.1833 -76.6167 218° Southwest 147 169 900 -840 Descending Potomac TRACON
04:28 39.1667 -76.6667 270° West  Level FlightAware Approximate
04:35 39.1754 -76.6683 270° West  Level Estimated
04:36 39.1754 -76.6683 270° West  Level Estimated
04:37 39.1754 -76.6683 270° West  Level Estimated